createdAt,value
2022-12-01T00:01:41.520Z,102099.41
2022-12-01T00:04:07.968Z,102093.38
2022-12-01T00:06:34.426Z,102091.59
2022-12-01T00:09:20.280Z,102094.03
2022-12-01T00:11:46.952Z,102090.16
2022-12-01T00:14:13.385Z,102083.75
2022-12-01T00:16:41.034Z,102086.16
2022-12-01T00:19:08.679Z,102084.22
2022-12-01T00:21:35.133Z,102078.97
2022-12-01T00:24:01.569Z,102073.97
2022-12-01T00:26:28.065Z,102075.78
2022-12-01T00:28:59.138Z,102070.50
2022-12-01T00:31:26.643Z,102071.28
2022-12-01T00:33:53.221Z,102075.50
2022-12-01T00:36:19.815Z,102077.03
2022-12-01T00:38:46.823Z,102081.91
2022-12-01T00:41:13.604Z,102083.44
2022-12-01T00:43:40.768Z,102086.75
2022-12-01T00:46:07.286Z,102090.97
2022-12-01T00:48:33.766Z,102084.06
2022-12-01T00:51:00.177Z,102083.16
2022-12-01T00:53:26.615Z,102086.47
2022-12-01T00:55:55.857Z,102082.25
2022-12-01T00:58:23.047Z,102086.47
2022-12-01T01:00:49.893Z,102089.56
2022-12-01T01:03:16.756Z,102100.31
2022-12-01T01:05:43.810Z,102098.66
2022-12-01T01:08:12.267Z,102101.22
2022-12-01T01:10:44.506Z,102103.91
2022-12-01T01:13:12.145Z,102106.47
2022-12-01T01:15:38.939Z,102100.56
2022-12-01T01:18:05.773Z,102100.56
2022-12-01T01:20:33.111Z,102104.03
2022-12-01T01:22:59.547Z,102101.59
2022-12-01T01:25:26.126Z,102108.53
2022-12-01T01:27:52.572Z,102103.41
2022-12-01T01:30:19.252Z,102097.09
2022-12-01T01:32:45.718Z,102093.00
2022-12-01T01:35:12.200Z,102096.47
2022-12-01T01:37:38.614Z,102091.34
2022-12-01T01:40:05.794Z,102098.28
2022-12-01T01:42:32.217Z,102112.63
2022-12-01T01:44:58.944Z,102101.59
2022-12-01T01:47:32.177Z,102105.19
2022-12-01T01:50:06.072Z,102100.72
2022-12-01T01:52:34.363Z,102109.16
2022-12-01T01:55:00.875Z,102115.19
2022-12-01T01:57:29.639Z,102115.19
2022-12-01T02:00:01.693Z,102117.00
2022-12-01T02:02:28.169Z,102115.19
2022-12-01T02:04:59.413Z,102106.47
2022-12-01T02:07:25.930Z,102106.59
2022-12-01T02:09:53.339Z,102108.41
2022-12-01T02:12:57.306Z,102113.41
2022-12-01T02:15:35.624Z,102111.59
2022-12-01T02:18:14.045Z,102116.72
2022-12-01T02:20:49.373Z,102107.09
2022-12-01T02:23:39.954Z,102109.25
2022-12-01T02:26:33.658Z,102111.78
2022-12-01T02:29:24.829Z,102102.31
2022-12-01T02:32:08.257Z,102117.69
2022-12-01T02:34:40.052Z,102113.34
2022-12-01T02:37:14.301Z,102113.34
2022-12-01T02:40:03.650Z,102115.91
2022-12-01T02:42:50.497Z,102105.50
2022-12-01T02:45:26.354Z,102111.66
2022-12-01T02:47:54.860Z,102109.88
2022-12-01T02:50:22.623Z,102107.16
2022-12-01T02:52:49.299Z,102101.16
2022-12-01T02:55:15.721Z,102114.88
2022-12-01T02:57:42.139Z,102110.63
2022-12-01T03:00:13.441Z,102110.63
2022-12-01T03:02:50.557Z,102107.94
2022-12-01T03:05:29.024Z,102107.16
2022-12-01T03:08:16.074Z,102106.28
2022-12-01T03:10:55.114Z,102102.69
2022-12-01T03:13:27.486Z,102103.56
2022-12-01T03:16:12.771Z,102107.94
2022-12-01T03:18:43.687Z,102101.78
2022-12-01T03:21:33.838Z,102099.09
2022-12-01T03:24:05.274Z,102106.63
2022-12-01T03:26:33.105Z,102112.50
2022-12-01T03:29:04.061Z,102104.53
2022-12-01T03:31:33.289Z,102106.06
2022-12-01T03:34:05.147Z,102107.75
2022-12-01T03:36:41.539Z,102106.72
2022-12-01T03:39:13.301Z,102103.38
2022-12-01T03:41:43.385Z,102104.28
2022-12-01T03:44:15.636Z,102102.75
2022-12-01T03:46:55.443Z,102101.97
2022-12-01T03:49:23.706Z,102101.22
2022-12-01T03:52:05.704Z,102099.69
2022-12-01T03:54:50.222Z,102101.97
2022-12-01T03:57:21.380Z,102104.53
2022-12-01T03:59:48.100Z,102100.31
2022-12-01T04:02:14.824Z,102106.97
2022-12-01T04:04:41.270Z,102112.09
2022-12-01T04:07:08.024Z,102111.56
2022-12-01T04:09:34.434Z,102114.91
2022-12-01T04:12:19.587Z,102108.09
2022-12-01T04:14:46.011Z,102115.16
2022-12-01T04:17:12.430Z,102114.41
2022-12-01T04:19:38.828Z,102106.06
2022-12-01T04:22:05.233Z,102103.50
2022-12-01T04:24:31.697Z,102111.19
2022-12-01T04:26:58.114Z,102107.75
2022-12-01T04:29:24.543Z,102106.72
2022-12-01T04:31:51.062Z,102112.88
2022-12-01T04:34:17.566Z,102119.53
2022-12-01T04:36:43.995Z,102119.38
2022-12-01T04:39:10.412Z,102122.84
2022-12-01T04:41:36.821Z,102116.19
2022-12-01T04:44:03.276Z,102123.25
2022-12-01T04:46:29.932Z,102115.56
2022-12-01T04:48:56.406Z,102117.50
2022-12-01T04:51:23.015Z,102116.91
2022-12-01T04:53:50.182Z,102119.59
2022-12-01T04:56:16.762Z,102115.38
2022-12-01T04:58:43.582Z,102123.19
2022-12-01T05:01:15.261Z,102124.97
2022-12-01T05:03:44.283Z,102125.88
2022-12-01T05:06:13.468Z,102120.75
2022-12-01T05:08:40.261Z,102124.09
2022-12-01T05:11:07.948Z,102118.06
2022-12-01T05:13:36.756Z,102124.72
2022-12-01T05:16:12.258Z,102118.38
2022-12-01T05:18:38.911Z,102120.19
2022-12-01T05:21:07.377Z,102125.31
2022-12-01T05:23:35.837Z,102131.38
2022-12-01T05:26:03.335Z,102137.53
2022-12-01T05:28:30.003Z,102140.22
2022-12-01T05:30:56.503Z,102134.06
2022-12-01T05:33:23.679Z,102143.41
2022-12-01T05:35:50.826Z,102143.25
2022-12-01T05:38:18.393Z,102147.34
2022-12-01T05:40:52.839Z,102157.59
2022-12-01T05:43:25.253Z,102153.09
2022-12-01T05:45:55.468Z,102159.75
2022-12-01T05:48:22.015Z,102161.41
2022-12-01T05:50:48.448Z,102161.56
2022-12-01T05:53:15.216Z,102162.19
2022-12-01T05:55:42.143Z,102165.50
2022-12-01T05:58:08.696Z,102160.38
2022-12-01T06:00:37.550Z,102154.38
2022-12-01T06:03:06.301Z,102167.31
2022-12-01T06:05:32.733Z,102165.50
2022-12-01T06:07:59.171Z,102160.13
2022-12-01T06:10:25.609Z,102171.13
2022-12-01T06:12:52.026Z,102165.25
2022-12-01T06:15:18.499Z,102161.63
2022-12-01T06:17:44.928Z,102168.56
2022-12-01T06:20:11.863Z,102162.19
2022-12-01T06:22:38.295Z,102157.06
2022-12-01T06:25:05.054Z,102163.34
2022-12-01T06:27:31.469Z,102164.25
2022-12-01T06:29:57.937Z,102164.25
2022-12-01T06:32:24.349Z,102163.34
2022-12-01T06:34:50.758Z,102165.28
2022-12-01T06:37:17.224Z,102162.72
2022-12-01T06:39:43.721Z,102165.28
2022-12-01T06:42:10.362Z,102177.06
2022-12-01T06:44:37.166Z,102182.34
2022-12-01T06:47:03.897Z,102171.94
2022-12-01T06:49:30.347Z,102177.22
2022-12-01T06:51:56.822Z,102181.69
2022-12-01T06:54:23.242Z,102177.97
2022-12-01T06:56:49.699Z,102179.63
2022-12-01T06:59:16.410Z,102184.00
2022-12-01T07:01:43.510Z,102194.88
2022-12-01T07:04:09.956Z,102195.78
2022-12-01T07:06:36.347Z,102190.50
2022-12-01T07:09:02.858Z,102196.53
2022-12-01T07:11:32.111Z,102194.75
2022-12-01T07:13:58.920Z,102201.66
2022-12-01T07:16:25.442Z,102203.19
2022-12-01T07:18:52.793Z,102215.25
2022-12-01T07:21:19.189Z,102210.13
2022-12-01T07:23:45.649Z,102207.41
2022-12-01T07:26:14.633Z,102216.78
2022-12-01T07:28:41.314Z,102209.56
2022-12-01T07:31:16.490Z,102212.41
2022-12-01T07:33:43.133Z,102215.88
2022-12-01T07:36:11.610Z,102218.56
2022-12-01T07:38:38.783Z,102218.56
2022-12-01T07:41:10.966Z,102217.66
2022-12-01T07:43:37.603Z,102225.50
2022-12-01T07:46:21.806Z,102223.97
2022-12-01T07:48:49.477Z,102223.97
2022-12-01T07:51:16.756Z,102217.31
2022-12-01T07:53:48.002Z,102217.31
2022-12-01T07:56:14.549Z,102222.44
2022-12-01T07:58:41.267Z,102215.66
2022-12-01T08:01:09.229Z,102221.81
2022-12-01T08:03:36.252Z,102215.19
2022-12-01T08:06:03.250Z,102222.13
2022-12-01T08:08:32.240Z,102214.56
2022-12-01T08:11:03.881Z,102227.50
2022-12-01T08:13:30.703Z,102216.50
2022-12-01T08:15:57.256Z,102219.97
2022-12-01T08:18:24.019Z,102220.09
2022-12-01T08:20:50.865Z,102215.88
2022-12-01T08:23:17.392Z,102217.81
2022-12-01T08:25:43.791Z,102216.91
2022-12-01T08:28:10.404Z,102215.25
2022-12-01T08:30:36.799Z,102230.75
2022-12-01T08:33:03.247Z,102222.34
2022-12-01T08:35:29.661Z,102221.28
2022-12-01T08:37:56.064Z,102215.38
2022-12-01T08:40:22.508Z,102227.47
2022-12-01T08:42:49.088Z,102226.69
2022-12-01T08:45:15.567Z,102225.16
2022-12-01T08:47:42.027Z,102220.94
2022-12-01T08:50:08.756Z,102223.50
2022-12-01T08:52:35.264Z,102222.88
2022-12-01T08:55:01.795Z,102219.53
2022-12-01T08:57:31.808Z,102227.09
2022-12-01T08:59:58.242Z,102229.66
2022-12-01T09:02:25.118Z,102228.91
2022-12-01T09:04:51.595Z,102228.00
2022-12-01T09:07:22.925Z,102227.50
2022-12-01T09:09:52.903Z,102228.53
2022-12-01T09:12:19.688Z,102235.34
2022-12-01T09:14:48.198Z,102234.44
2022-12-01T09:17:15.227Z,102241.53
2022-12-01T09:19:42.491Z,102236.41
2022-12-01T09:22:09.973Z,102244.09
2022-12-01T09:24:36.520Z,102239.09
2022-12-01T09:27:03.499Z,102239.09
2022-12-01T09:29:30.410Z,102240.13
2022-12-01T09:31:59.252Z,102232.56
2022-12-01T09:34:26.255Z,102239.38
2022-12-01T09:36:56.598Z,102231.94
2022-12-01T09:39:23.121Z,102233.63
2022-12-01T09:42:14.035Z,102227.59
2022-12-01T09:44:47.575Z,102224.25
2022-12-01T09:47:19.177Z,102225.41
2022-12-01T09:50:00.125Z,102223.75
2022-12-01T09:52:38.661Z,102227.97
2022-12-01T09:55:11.982Z,102227.22
2022-12-01T09:57:40.281Z,102216.06
2022-12-01T10:00:30.979Z,102216.06
2022-12-01T10:03:16.061Z,102222.38
2022-12-01T10:06:18.543Z,102214.81
2022-12-01T10:08:36.393Z,102221.75
2022-12-01T10:11:13.567Z,102225.47
2022-12-01T10:13:41.894Z,102223.06
2022-12-01T10:16:13.596Z,102214.59
2022-12-01T10:19:05.944Z,102218.19
2022-12-01T10:21:40.981Z,102214.72
2022-12-01T10:24:25.982Z,102209.47
2022-12-01T10:27:22.341Z,102208.44
2022-12-01T10:29:55.887Z,102208.28
2022-12-01T10:32:33.100Z,102214.47
2022-12-01T10:34:59.541Z,102211.75
2022-12-01T10:37:27.320Z,102215.09
2022-12-01T10:39:55.301Z,102208.44
2022-12-01T10:42:39.093Z,102204.97
2022-12-01T10:45:10.362Z,102204.19
2022-12-01T10:47:37.284Z,102199.97
2022-12-01T10:50:04.244Z,102204.19
2022-12-01T10:52:38.236Z,102198.44
2022-12-01T10:55:22.862Z,102199.47
2022-12-01T10:57:50.053Z,102196.16
2022-12-01T11:00:51.422Z,102198.72
2022-12-01T11:03:23.152Z,102194.84
2022-12-01T11:05:58.021Z,102195.88
2022-12-01T11:08:52.129Z,102198.56
2022-12-01T11:11:25.560Z,102188.47
2022-12-01T11:13:52.287Z,102189.50
2022-12-01T11:16:35.682Z,102185.41
2022-12-01T11:19:25.300Z,102186.44
2022-12-01T11:21:56.655Z,102187.19
2022-12-01T11:24:44.443Z,102186.44
2022-12-01T11:27:20.681Z,102184.63
2022-12-01T11:29:49.848Z,102188.09
2022-12-01T11:32:20.957Z,102182.97
2022-12-01T11:34:57.299Z,102186.56
2022-12-01T11:37:27.838Z,102176.94
2022-12-01T11:39:54.488Z,102176.16
2022-12-01T11:42:26.943Z,102172.44
2022-12-01T11:44:56.779Z,102176.94
2022-12-01T11:47:27.995Z,102177.56
2022-12-01T11:50:02.784Z,102178.47
2022-12-01T11:52:31.693Z,102173.22
2022-12-01T11:55:29.656Z,102174.88
2022-12-01T11:58:00.150Z,102173.06
2022-12-01T12:00:29.673Z,102176.38
2022-12-01T12:03:03.162Z,102176.38
2022-12-01T12:05:38.679Z,102171.25
2022-12-01T12:08:17.181Z,102173.06
2022-12-01T12:10:55.641Z,102164.31
2022-12-01T12:13:31.787Z,102170.34
2022-12-01T12:16:08.681Z,102166.88
2022-12-01T12:18:56.283Z,102166.13
2022-12-01T12:21:33.855Z,102160.97
2022-12-01T12:24:25.359Z,102160.97
2022-12-01T12:27:16.381Z,102173.06
2022-12-01T12:30:23.471Z,102167.94
2022-12-01T12:33:08.513Z,102162.81
2022-12-01T12:35:44.096Z,102164.63
2022-12-01T12:38:25.683Z,102171.25
2022-12-01T12:41:18.824Z,102173.69
2022-12-01T12:44:05.436Z,102175.34
2022-12-01T12:46:48.011Z,102172.78
2022-12-01T12:49:44.179Z,102170.22
2022-12-01T12:52:16.218Z,102169.19
2022-12-01T12:55:04.134Z,102176.88
2022-12-01T12:57:38.197Z,102175.84
2022-12-01T13:00:15.370Z,102176.75
2022-12-01T13:02:53.175Z,102171.34
2022-12-01T13:05:40.451Z,102168.66
2022-12-01T13:08:56.567Z,102164.16
2022-12-01T13:11:27.616Z,102167.47
2022-12-01T13:14:21.943Z,102167.63
2022-12-01T13:16:50.477Z,102164.91
2022-12-01T13:19:22.596Z,102169.28
2022-12-01T13:21:50.277Z,102161.44
2022-12-01T13:24:23.494Z,102166.56
2022-12-01T13:26:54.147Z,102165.53
2022-12-01T13:29:23.075Z,102176.69
2022-12-01T13:31:51.221Z,102169.91
2022-12-01T13:34:22.087Z,102166.56
2022-12-01T13:36:53.025Z,102171.69
2022-12-01T13:39:27.914Z,102167.47
2022-12-01T13:42:06.910Z,102165.66
2022-12-01T13:44:40.524Z,102162.97
2022-12-01T13:47:09.935Z,102170.53
2022-12-01T13:49:44.846Z,102166.81
2022-12-01T13:52:25.709Z,102162.31
2022-12-01T13:55:07.337Z,102159.47
2022-12-01T13:57:44.448Z,102156.75
2022-12-01T14:00:28.633Z,102159.31
2022-12-01T14:03:13.409Z,102157.50
2022-12-01T14:05:39.795Z,102160.06
2022-12-01T14:08:31.244Z,102156.47
2022-12-01T14:10:58.564Z,102156.47
2022-12-01T14:13:25.871Z,102162.50
2022-12-01T14:15:58.148Z,102157.13
2022-12-01T14:18:34.283Z,102165.44
2022-12-01T14:21:03.071Z,102159.53
2022-12-01T14:23:33.752Z,102159.28
2022-12-01T14:26:19.652Z,102157.13
2022-12-01T14:28:55.079Z,102158.78
2022-12-01T14:31:46.235Z,102163.13
2022-12-01T14:34:19.279Z,102154.41
2022-12-01T14:36:52.330Z,102158.91
2022-12-01T14:39:19.647Z,102159.69
2022-12-01T14:41:48.999Z,102164.03
2022-12-01T14:44:31.466Z,102159.69
2022-12-01T14:47:04.937Z,102171.47
2022-12-01T14:49:35.234Z,102169.41
2022-12-01T14:52:05.485Z,102163.19
2022-12-01T14:54:38.152Z,102165.63
2022-12-01T14:57:08.133Z,102167.16
2022-12-01T14:59:36.629Z,102158.44
2022-12-01T15:02:12.227Z,102164.34
2022-12-01T15:05:07.473Z,102158.56
2022-12-01T15:07:39.639Z,102166.91
2022-12-01T15:10:15.043Z,102169.59
2022-12-01T15:12:41.455Z,102173.81
2022-12-01T15:15:24.365Z,102168.69
2022-12-01T15:17:52.123Z,102171.41
2022-12-01T15:20:36.306Z,102167.78
2022-12-01T15:23:17.051Z,102166.63
2022-12-01T15:25:45.264Z,102172.38
2022-12-01T15:28:19.862Z,102173.59
2022-12-01T15:30:55.456Z,102167.31
2022-12-01T15:33:32.776Z,102160.38
2022-12-01T15:36:02.487Z,102168.06
2022-12-01T15:38:34.563Z,102163.72
2022-12-01T15:43:56.734Z,102162.19
2022-12-01T15:46:30.999Z,102161.41
2022-12-01T15:49:19.806Z,102161.28
2022-12-01T15:51:48.185Z,102159.63
2022-12-01T15:54:20.667Z,102159.63
2022-12-01T15:56:51.865Z,102165.78
2022-12-01T15:59:26.082Z,102175.28
2022-12-01T16:01:52.653Z,102170.28
2022-12-01T16:04:21.612Z,102164.75
2022-12-01T16:06:55.327Z,102168.06
2022-12-01T16:09:26.723Z,102166.28
2022-12-01T16:12:11.816Z,102163.72
2022-12-01T16:14:50.116Z,102154.38
2022-12-01T16:17:17.170Z,102153.19
2022-12-01T16:19:45.393Z,102164.63
2022-12-01T16:22:11.694Z,102162.81
2022-12-01T16:24:54.776Z,102161.63
2022-12-01T16:27:31.680Z,102160.59
2022-12-01T16:30:01.390Z,102170.06
2022-12-01T16:32:34.132Z,102158.66
2022-12-01T16:35:00.873Z,102173.88
2022-12-01T16:37:27.613Z,102169.25
2022-12-01T16:39:54.093Z,102177.69
2022-12-01T16:42:23.907Z,102172.56
2022-12-01T16:44:51.427Z,102177.69
2022-12-01T16:47:19.281Z,102183.59
2022-12-01T16:49:46.052Z,102187.19
2022-12-01T16:54:59.001Z,102189.88
2022-12-01T16:57:25.456Z,102189.75
2022-12-01T16:59:51.877Z,102192.31
2022-12-01T17:02:18.286Z,102183.59
2022-12-01T17:04:44.743Z,102181.75
2022-12-01T17:07:11.173Z,102188.72
2022-12-01T17:09:37.571Z,102187.66
2022-12-01T17:12:04.173Z,102183.28
2022-12-01T17:14:30.594Z,102188.41
2022-12-01T17:17:00.279Z,102185.25
2022-12-01T17:19:26.721Z,102183.59
2022-12-01T17:21:53.184Z,102187.94
2022-12-01T17:24:19.660Z,102187.19
2022-12-01T17:26:46.119Z,102191.53
2022-12-01T17:29:12.553Z,102195.63
2022-12-01T17:31:39.059Z,102195.31
2022-12-01T17:34:05.543Z,102193.13
2022-12-01T17:36:31.955Z,102193.13
2022-12-01T17:38:58.772Z,102198.38
2022-12-01T17:41:31.953Z,102191.44
2022-12-01T17:43:58.420Z,102192.22
2022-12-01T17:46:24.873Z,102188.75
2022-12-01T17:48:51.340Z,102193.25
2022-12-01T17:51:17.789Z,102197.34
2022-12-01T17:53:44.274Z,102195.53
2022-12-01T17:56:12.667Z,102203.38
2022-12-01T17:58:39.472Z,102204.00
2022-12-01T18:01:06.505Z,102201.28
2022-12-01T18:03:32.933Z,102194.38
2022-12-01T18:06:01.576Z,102203.84
2022-12-01T18:08:29.309Z,102212.16
2022-12-01T18:10:55.914Z,102209.28
2022-12-01T18:13:22.751Z,102203.13
2022-12-01T18:15:49.369Z,102201.31
2022-12-01T18:18:15.842Z,102210.06
2022-12-01T18:20:43.588Z,102210.94
2022-12-01T18:23:11.612Z,102204.94
2022-12-01T18:25:39.805Z,102205.69
2022-12-01T18:28:06.876Z,102203.13
2022-12-01T18:30:33.944Z,102197.09
2022-12-01T18:33:00.918Z,102195.44
2022-12-01T18:35:31.771Z,102196.47
2022-12-01T18:37:58.678Z,102192.88
2022-12-01T18:40:25.095Z,102201.59
2022-12-01T18:42:51.552Z,102198.00
2022-12-01T18:45:21.232Z,102198.00
2022-12-01T18:47:48.087Z,102191.97
2022-12-01T18:50:14.576Z,102191.09
2022-12-01T18:52:40.985Z,102198.00
2022-12-01T18:55:07.667Z,102191.22
2022-12-01T18:57:34.093Z,102192.13
2022-12-01T19:00:00.509Z,102190.31
2022-12-01T19:02:27.010Z,102188.66
2022-12-01T19:04:53.481Z,102188.66
2022-12-01T19:07:20.714Z,102182.63
2022-12-01T19:09:50.661Z,102180.97
2022-12-01T19:12:17.216Z,102177.50
2022-12-01T19:14:43.684Z,102177.66
2022-12-01T19:17:10.088Z,102187.44
2022-12-01T19:19:37.789Z,102183.22
2022-12-01T19:22:04.324Z,102178.84
2022-12-01T19:24:30.757Z,102176.31
2022-12-01T19:26:57.225Z,102172.66
2022-12-01T19:29:23.732Z,102172.53
2022-12-01T19:31:50.144Z,102177.50
2022-12-01T19:34:16.615Z,102172.13
2022-12-01T19:36:43.093Z,102174.69
2022-12-01T19:39:09.539Z,102178.00
2022-12-01T19:41:35.974Z,102178.00
2022-12-01T19:44:02.542Z,102178.75
2022-12-01T19:46:29.062Z,102181.47
2022-12-01T19:49:00.464Z,102180.56
2022-12-01T19:51:37.391Z,102179.66
2022-12-01T19:54:10.914Z,102178.75
2022-12-01T19:56:37.341Z,102172.59
2022-12-01T19:59:04.943Z,102180.16
2022-12-01T20:01:31.409Z,102176.50
2022-12-01T20:03:57.881Z,102173.06
2022-12-01T20:06:26.807Z,102177.00
2022-12-01T20:08:54.986Z,102189.03
2022-12-01T20:11:21.380Z,102181.22
2022-12-01T20:13:48.065Z,102184.53
2022-12-01T20:16:17.331Z,102180.94
2022-12-01T20:18:44.370Z,102186.06
2022-12-01T20:21:17.347Z,102180.66
2022-12-01T20:23:45.811Z,102180.66
2022-12-01T20:26:13.318Z,102184.00
2022-12-01T20:28:40.111Z,102183.38
2022-12-01T20:31:13.080Z,102184.25
2022-12-01T20:33:40.512Z,102185.16
2022-12-01T20:36:07.448Z,102177.34
2022-12-01T20:38:34.636Z,102185.94
2022-12-01T20:41:01.106Z,102188.34
2022-12-01T20:43:28.510Z,102181.56
2022-12-01T20:45:55.159Z,102179.00
2022-12-01T20:48:21.715Z,102186.69
2022-12-01T20:50:48.188Z,102179.75
2022-12-01T20:53:14.581Z,102186.38
2022-12-01T20:55:41.028Z,102179.31
2022-12-01T20:58:10.293Z,102182.63
2022-12-01T21:00:45.300Z,102180.97
2022-12-01T21:03:12.874Z,102172.13
2022-12-01T21:05:40.554Z,102174.41
2022-12-01T21:08:08.896Z,102172.59
2022-12-01T21:10:40.453Z,102175.16
2022-12-01T21:13:42.238Z,102174.41
2022-12-01T21:16:14.285Z,102177.72
2022-12-01T21:18:55.639Z,102174.41
2022-12-01T21:21:27.534Z,102175.16
2022-12-01T21:24:13.488Z,102174.84
2022-12-01T21:27:16.059Z,102179.97
2022-12-01T21:29:47.621Z,102175.59
2022-12-01T21:32:19.644Z,102173.81
2022-12-01T21:34:47.268Z,102174.56
2022-12-01T21:37:31.986Z,102173.81
2022-12-01T21:39:58.507Z,102174.72
2022-12-01T21:42:30.557Z,102173.81
2022-12-01T21:44:57.367Z,102179.22
2022-12-01T21:47:26.670Z,102176.50
2022-12-01T21:49:54.723Z,102173.19
2022-12-01T21:52:42.096Z,102168.97
2022-12-01T21:55:14.424Z,102168.06
2022-12-01T21:57:42.940Z,102161.28
2022-12-01T22:00:35.019Z,102168.97
2022-12-01T22:03:39.716Z,102162.94
2022-12-01T22:06:31.733Z,102164.59
2022-12-01T22:09:02.108Z,102162.03
2022-12-01T22:11:30.066Z,102163.56
2022-12-01T22:14:01.287Z,102157.69
2022-12-01T22:16:35.990Z,102158.44
2022-12-01T22:19:28.696Z,102160.88
2022-12-01T22:22:02.468Z,102158.44
2022-12-01T22:24:41.051Z,102154.84
2022-12-01T22:27:22.555Z,102155.59
2022-12-01T22:29:51.636Z,102149.59
2022-12-01T22:32:42.564Z,102147.78
2022-12-01T22:35:26.035Z,102142.66
2022-12-01T22:37:54.023Z,102148.69
2022-12-01T22:40:33.259Z,102144.34
2022-12-01T22:43:24.688Z,102145.09
2022-12-01T22:46:00.365Z,102135.13
2022-12-01T22:48:39.597Z,102141.16
2022-12-01T22:51:23.331Z,102137.69
2022-12-01T22:53:53.123Z,102133.34
2022-12-01T22:56:44.567Z,102125.66
2022-12-01T22:59:31.844Z,102124.47
2022-12-01T23:02:00.426Z,102125.38
2022-12-01T23:04:40.962Z,102132.03
2022-12-01T23:07:26.517Z,102129.28
2022-12-01T23:09:53.273Z,102121.47
2022-12-01T23:12:28.984Z,102123.88
2022-12-01T23:14:58.776Z,102115.31
2022-12-01T23:17:30.006Z,102115.19
2022-12-01T23:20:17.838Z,102116.97
2022-12-01T23:22:44.285Z,102123.00
2022-12-01T23:25:14.329Z,102121.19
2022-12-01T23:27:41.117Z,102119.38
2022-12-01T23:30:08.476Z,102114.28
2022-12-01T23:32:34.912Z,102110.94
2022-12-01T23:35:02.029Z,102110.69
2022-12-01T23:37:35.868Z,102113.38
2022-12-01T23:40:14.909Z,102105.56
2022-12-01T23:42:41.670Z,102111.72
2022-12-01T23:45:16.042Z,102105.56
2022-12-01T23:47:42.476Z,102104.78
2022-12-01T23:50:14.966Z,102101.34
2022-12-01T23:52:41.401Z,102095.31
2022-12-01T23:55:15.415Z,102097.13
2022-12-01T23:57:41.858Z,102098.66
